出雲空港の過去48時間の天気

出雲空港 (Izumo)

現在時刻: 4/27 13:58 JST (4/27 04:58 UTC) 以下の時間は現地時間です。

過去48時間のMETAR気象情報
時間 風向 風速(m/s) 視程 気温(℃) 湿度(%) 気圧(hPa) 天気現象
27 13:00 西南西 10 10km以上 20 56 1010
27 12:00 西 7 10km以上 18 68 1010
27 11:00 西 9 10km以上 19 49 1011
27 10:00 西南西 7 10km以上 20 46 1010
27 09:00 南南東 3 10km以上 15 67 1011
27 08:00 南南東 3 10km以上 13 77 1011
27 07:00 南南東 3 10km以上 12 82 1011
27 06:30 3 10km以上 12 82 1011
27 06:10 4 10km以上 11 87 1011
26 20:00 東北東 2 10km以上 15 77 1012
26 19:00 東北東 5 10km以上 16 68 1012
26 18:00 東北東 6 10km以上 17 63 1012
26 17:00 東北東 5 10km以上 17 63 1012
26 16:00 北北東 4 10km以上 18 60 1012
26 15:00 5 10km以上 19 60 1012
26 14:00 4 10km以上 19 56 1012
26 13:00 3 10km以上 18 52 1013
26 12:00 北北東 3 10km以上 17 55 1014
26 11:00 北北東 3 10km以上 16 59 1015
26 10:00 北北東 2 10km以上 15 63 1015
26 09:00 不定 1 10km以上 14 72 1015
26 08:00 3 10km以上 12 82 1015
26 07:00 3 10km以上 10 87 1015
26 06:30 4 10km以上 10 87 1014
26 06:10 3 10km以上 9 93 1014
25 20:00 3 10km以上 12 71 1013
25 19:00 北西 2 10km以上 12 71 1012
25 18:00 北西 3 10km以上 12 71 1012
25 17:00 北北西 4 10km以上 12 77 1011
25 16:00 北北西 5 10km以上 13 77 1011
25 15:00 北北西 7 10km以上 13 77 1011
25 14:00 北北西 7 10km以上 14 77 1010
RJOC 270400Z 24020KT 9999 FEW030 SCT/// 20/11 Q1010
RJOC 270300Z 26014KT 9999 FEW030 SCT130 BKN/// 18/12 Q1010
RJOC 270200Z 27017KT CAVOK 19/08 Q1011
RJOC 270100Z 24013KT CAVOK 20/08 Q1010
RJOC 270000Z 16005KT CAVOK 15/09 Q1011
RJOC 262300Z 16006KT CAVOK 13/09 Q1011
RJOC 262200Z 15006KT CAVOK 12/09 Q1011
RJOC 262130Z 17005KT CAVOK 12/09 Q1011
RJOC 262110Z 17007KT 9999 FEW005 BKN170 11/09 Q1011 RMK 1ST005 7AC170 A2986
RJOC 261100Z 07003KT CAVOK 15/11 Q1012
RJOC 261000Z 07010KT CAVOK 16/10 Q1012
RJOC 260900Z 07011KT CAVOK 17/10 Q1012
RJOC 260800Z 07010KT CAVOK 17/10 Q1012
RJOC 260700Z 03008KT 9999 FEW045 BKN/// 18/10 Q1012
RJOC 260600Z 36010KT 9999 FEW045 BKN/// 19/11 Q1012
RJOC 260500Z 36008KT CAVOK 19/10 Q1012
RJOC 260400Z 01005KT CAVOK 18/08 Q1013
RJOC 260300Z 02006KT 9999 FEW035 BKN/// 17/08 Q1014
RJOC 260200Z 02006KT 9999 FEW025 BKN/// 16/08 Q1015
RJOC 260100Z 02004KT 9999 FEW025 BKN/// 15/08 Q1015
RJOC 260000Z VRB02KT 9999 FEW025 SCT030 14/09 Q1015
RJOC 252300Z 17005KT 9999 FEW015 12/09 Q1015
RJOC 252200Z 18006KT 9999 FEW002 10/08 Q1015
RJOC 252130Z 17007KT 9999 FEW002 10/08 Q1014
RJOC 252110Z 17006KT 9999 FEW002 09/08 Q1014 RMK 1ST002 A2996
RJOC 251100Z 36005KT 310V030 9999 FEW015 BKN020 12/07 Q1013
RJOC 251000Z 31003KT 250V020 9999 FEW015 BKN020 12/07 Q1012
RJOC 250900Z 32006KT 9999 FEW015 BKN020 BKN030 12/07 Q1012
RJOC 250800Z 33007KT 9999 FEW015 BKN020 12/08 Q1011
RJOC 250700Z 33009KT 9999 FEW010 SCT015 BKN020 13/09 Q1011
RJOC 250600Z 33013KT 9999 FEW010 SCT015 BKN025 13/09 Q1011
RJOC 250500Z 34014KT 9999 FEW015 SCT020 BKN030 14/10 Q1010